Time;durP1;ratioP1;P1;durP2;ratioP2;P2;SDS_P1;SDS_P2;PMS_P1;PMS_P2;Temp;Humidity;BMP_temperature;BMP_pressure;BME280_temperature;BME280_humidity;BME280_pressure;Samples;Min_cycle;Max_cycle;Signal;HPM_P1;HPM_P2
2023/07/21 00:00:21;;;;;;;2.43;2.00;;;;;;;21.56;41.44;98297.34;6970390;28;20653;-83
2023/07/21 00:03:46;;;;;;;4.33;2.30;;;;;;;21.06;43.02;98283.22;6977540;28;20292;-84
2023/07/21 00:07:07;;;;;;;2.57;2.10;;;;;;;21.11;43.16;98283.97;6977286;28;20256;-83
2023/07/21 00:10:29;;;;;;;3.67;2.27;;;;;;;20.99;41.46;98249.81;6976633;28;20377;-83
2023/07/21 00:13:50;;;;;;;2.30;2.20;;;;;;;21.01;42.39;98288.72;6976302;28;20284;-84
2023/07/21 00:17:12;;;;;;;4.73;2.20;;;;;;;21.24;42.12;98281.44;6975167;28;20210;-83
2023/07/21 00:20:35;;;;;;;2.60;1.87;;;;;;;21.51;41.20;98254.31;6974680;28;20228;-83
2023/07/21 00:23:56;;;;;;;2.13;1.93;;;;;;;21.49;42.20;98289.44;6974884;28;20209;-84
2023/07/21 00:27:18;;;;;;;3.30;2.17;;;;;;;21.49;42.00;98285.91;6973527;28;20563;-84
2023/07/21 00:30:40;;;;;;;3.07;2.07;;;;;;;21.70;41.59;98274.47;6973983;28;20235;-83
2023/07/21 00:34:04;;;;;;;3.03;2.17;;;;;;;21.13;41.64;98205.84;6974653;28;20575;-83
2023/07/21 00:37:27;;;;;;;2.83;2.17;;;;;;;21.58;41.90;98268.53;6973607;28;20215;-83
2023/07/21 00:40:48;;;;;;;4.97;2.30;;;;;;;21.51;42.30;98281.75;6974795;28;20323;-83
2023/07/21 00:44:09;;;;;;;4.80;2.50;;;;;;;21.12;43.52;98279.34;6975429;28;20198;-83
2023/07/21 00:47:32;;;;;;;2.73;2.10;;;;;;;21.28;43.48;98271.53;6974685;28;20287;-83
2023/07/21 00:50:54;;;;;;;4.00;2.40;;;;;;;21.17;43.57;98287.53;6975189;28;20226;-83
2023/07/21 00:54:17;;;;;;;2.40;2.20;;;;;;;21.20;43.10;98255.66;6975934;28;20595;-82
2023/07/21 00:57:39;;;;;;;3.00;2.17;;;;;;;21.43;42.98;98276.88;6974756;28;20212;-82
2023/07/21 01:01:01;;;;;;;5.43;2.17;;;;;;;21.44;43.21;98277.69;6977162;28;20321;-82
2023/07/21 01:04:23;;;;;;;3.03;2.17;;;;;;;21.52;43.20;98286.13;6975683;28;20569;-83
2023/07/21 01:07:45;;;;;;;3.07;2.27;;;;;;;21.64;42.89;98275.59;6975049;28;20224;-83
2023/07/21 01:11:10;;;;;;;3.77;2.20;;;;;;;21.58;42.99;98262.19;6974504;28;20724;-84
2023/07/21 01:14:32;;;;;;;2.97;2.10;;;;;;;21.20;43.98;98258.41;6974900;28;20197;-83
2023/07/21 01:17:54;;;;;;;3.07;2.77;;;;;;;21.23;43.81;98263.34;6973956;28;20784;-83
2023/07/21 01:21:25;;;;;;;5.40;2.23;;;;;;;21.10;44.06;98235.75;6974183;28;20235;-83
2023/07/21 01:24:59;;;;;;;3.57;2.60;;;;;;;21.05;45.04;98260.44;6974849;28;20217;-84
2023/07/21 01:28:20;;;;;;;4.20;2.50;;;;;;;21.09;44.86;98253.31;6974130;28;20221;-83
2023/07/21 01:31:42;;;;;;;14.27;2.87;;;;;;;21.45;44.19;98254.66;6973076;28;20200;-83
2023/07/21 01:35:07;;;;;;;4.40;2.33;;;;;;;21.58;43.93;98251.22;6974611;28;20235;-83
2023/07/21 01:38:30;;;;;;;2.17;1.97;;;;;;;21.39;43.66;98231.94;6974502;28;20226;-84
2023/07/21 01:41:53;;;;;;;3.07;2.20;;;;;;;21.17;44.94;98237.06;6973992;28;20217;-83
2023/07/21 01:45:15;;;;;;;3.37;2.60;;;;;;;20.93;45.42;98238.06;6974296;28;20242;-83
2023/07/21 01:48:36;;;;;;;3.43;2.60;;;;;;;21.13;45.23;98226.97;6974145;28;20375;-83
2023/07/21 01:51:58;;;;;;;4.43;2.20;;;;;;;20.83;45.81;98236.19;6973575;28;20295;-83
2023/07/21 01:55:22;;;;;;;2.63;2.30;;;;;;;20.76;46.21;98229.38;6974960;28;20223;-84
2023/07/21 01:58:46;;;;;;;3.70;2.30;;;;;;;20.87;46.15;98232.91;6974300;28;20219;-83
2023/07/21 02:02:09;;;;;;;2.30;2.10;;;;;;;21.14;45.36;98229.41;6951854;28;20239;-83
2023/07/21 02:05:31;;;;;;;3.80;2.40;;;;;;;21.22;44.75;98227.97;6947730;28;20688;-83
2023/07/21 02:08:52;;;;;;;3.97;2.20;;;;;;;21.26;44.96;98226.31;6971695;28;20317;-82
2023/07/21 02:12:14;;;;;;;2.90;2.60;;;;;;;21.22;45.02;98229.91;6976504;28;20357;-83
2023/07/21 02:15:36;;;;;;;3.63;2.03;;;;;;;21.03;45.86;98221.56;6976111;28;20753;-82
2023/07/21 02:18:58;;;;;;;2.33;2.13;;;;;;;21.08;45.91;98221.53;6975282;28;20884;-83
2023/07/21 02:22:19;;;;;;;4.73;2.47;;;;;;;20.88;46.44;98227.13;6976094;28;20295;-82
2023/07/21 02:25:42;;;;;;;4.00;2.70;;;;;;;21.13;45.71;98224.22;6975346;28;20540;-83
2023/07/21 02:29:03;;;;;;;2.80;2.60;;;;;;;21.10;44.97;98188.34;6975735;28;20236;-83
2023/07/21 02:32:28;;;;;;;3.77;2.67;;;;;;;20.94;45.25;98162.97;6976899;28;20686;-83
2023/07/21 02:35:49;;;;;;;2.50;2.30;;;;;;;21.38;44.85;98208.38;6975259;28;20690;-82
2023/07/21 02:39:11;;;;;;;2.50;2.20;;;;;;;20.83;45.95;98181.38;6976381;28;20353;-83
2023/07/21 02:42:32;;;;;;;2.97;2.53;;;;;;;21.19;45.87;98209.38;6975991;28;20725;-83
2023/07/21 02:45:55;;;;;;;2.27;2.10;;;;;;;21.33;45.48;98196.63;6970326;28;20286;-82
2023/07/21 02:49:17;;;;;;;3.53;2.27;;;;;;;20.82;46.78;98189.88;6949518;28;20296;-83
2023/07/21 02:52:42;;;;;;;2.50;2.30;;;;;;;20.89;47.08;98226.06;6948043;28;20735;-83
2023/07/21 02:56:04;;;;;;;3.70;2.37;;;;;;;20.96;46.95;98212.84;6948216;28;20307;-82
2023/07/21 02:59:26;;;;;;;3.10;2.80;;;;;;;21.14;46.19;98203.94;6948680;28;20238;-82
2023/07/21 03:02:48;;;;;;;2.70;2.50;;;;;;;21.02;46.42;98209.75;6948913;28;20229;-83
2023/07/21 03:06:11;;;;;;;3.40;2.30;;;;;;;21.05;46.42;98194.66;6969519;28;20293;-83
2023/07/21 03:09:32;;;;;;;2.63;2.43;;;;;;;20.94;46.71;98201.34;6974539;28;20265;-82
2023/07/21 03:12:54;;;;;;;2.50;2.30;;;;;;;21.13;46.37;98199.56;6974647;28;20319;-83
2023/07/21 03:16:15;;;;;;;5.77;2.40;;;;;;;21.16;45.88;98198.16;6974067;28;20252;-83
2023/07/21 03:19:37;;;;;;;6.50;2.60;;;;;;;20.83;46.79;98209.91;6974305;28;20228;-83
2023/07/21 03:22:59;;;;;;;3.17;2.43;;;;;;;21.12;46.00;98202.56;6974097;28;20385;-82
2023/07/21 03:26:21;;;;;;;3.70;2.50;;;;;;;21.17;45.94;98206.91;6973696;28;20205;-83
2023/07/21 03:29:43;;;;;;;3.33;2.03;;;;;;;21.17;45.75;98202.53;6973683;28;20253;-83
2023/07/21 03:33:05;;;;;;;2.63;2.43;;;;;;;21.31;45.07;98212.56;6974271;28;20529;-83
2023/07/21 03:36:27;;;;;;;4.27;2.53;;;;;;;20.76;46.41;98184.75;6974344;28;20347;-83
2023/07/21 03:39:49;;;;;;;2.53;2.33;;;;;;;20.76;47.14;98201.97;6975284;28;20214;-83
2023/07/21 03:43:11;;;;;;;3.53;2.57;;;;;;;20.82;46.74;98211.81;6974477;28;20297;-83
2023/07/21 03:46:32;;;;;;;2.60;2.40;;;;;;;20.89;46.47;98209.63;6974370;28;20297;-83
2023/07/21 03:49:54;;;;;;;3.37;2.53;;;;;;;20.83;46.22;98202.50;6974342;28;20286;-82
2023/07/21 03:53:15;;;;;;;3.80;2.40;;;;;;;21.12;45.19;98203.41;6974989;28;20286;-83
2023/07/21 03:56:39;;;;;;;3.70;2.63;;;;;;;21.11;45.53;98209.16;6977800;28;20200;-83
2023/07/21 04:00:01;;;;;;;4.07;2.90;;;;;;;21.06;45.75;98190.00;6980515;28;20227;-83
2023/07/21 04:03:24;;;;;;;4.63;2.63;;;;;;;21.01;45.52;98196.38;6982054;28;20315;-83
2023/07/21 04:06:46;;;;;;;3.73;2.57;;;;;;;21.31;44.84;98202.38;7004529;28;20200;-83
2023/07/21 04:10:08;;;;;;;2.87;2.60;;;;;;;21.37;44.59;98195.75;6979938;28;20223;-83
2023/07/21 04:13:32;;;;;;;2.53;2.33;;;;;;;21.34;45.07;98185.38;6985295;28;20265;-83
2023/07/21 04:16:55;;;;;;;3.27;2.23;;;;;;;20.90;44.00;98095.31;6982437;28;20213;-84
2023/07/21 04:20:16;;;;;;;2.67;2.30;;;;;;;21.49;44.30;98192.63;6982294;28;20593;-83
2023/07/21 04:23:38;;;;;;;3.30;2.53;;;;;;;21.51;43.90;98190.41;6984275;28;20329;-83
2023/07/21 04:26:59;;;;;;;4.20;2.47;;;;;;;21.80;43.47;98183.81;6980125;28;20259;-84
2023/07/21 04:30:22;;;;;;;2.70;2.40;;;;;;;21.35;44.39;98180.69;6958989;28;20299;-84
2023/07/21 04:33:45;;;;;;;2.53;2.03;;;;;;;20.77;45.67;98186.38;6964000;28;20209;-84
2023/07/21 04:37:09;;;;;;;3.13;2.60;;;;;;;21.01;45.28;98190.88;6976845;28;20271;-84
2023/07/21 04:40:31;;;;;;;3.40;2.20;;;;;;;21.17;44.83;98176.75;6984622;28;20229;-83
2023/07/21 04:43:52;;;;;;;3.37;2.60;;;;;;;21.02;43.49;98077.41;6981403;28;20808;-84
2023/07/21 04:47:15;;;;;;;3.07;2.33;;;;;;;21.82;43.38;98173.34;7006679;28;20271;-84
2023/07/21 04:50:37;;;;;;;4.20;2.23;;;;;;;22.01;43.27;98187.94;7008006;28;20274;-84
2023/07/21 04:53:59;;;;;;;5.20;2.40;;;;;;;22.01;42.87;98193.44;7024275;28;20231;-84
2023/07/21 04:57:20;;;;;;;2.37;2.17;;;;;;;22.16;42.67;98181.44;7026644;28;20214;-84
2023/07/21 05:00:42;;;;;;;3.37;2.10;;;;;;;22.64;41.25;98188.50;7011415;28;20222;-85
2023/07/21 05:04:05;;;;;;;3.20;2.30;;;;;;;22.94;41.24;98180.59;6969344;28;20759;-84
2023/07/21 05:07:26;;;;;;;4.50;2.67;;;;;;;22.75;42.78;98192.72;6951171;28;20297;-83
2023/07/21 05:10:48;;;;;;;3.07;2.50;;;;;;;22.77;42.11;98204.25;6955301;28;20308;-82
2023/07/21 05:14:11;;;;;;;3.07;2.40;;;;;;;22.58;42.58;98190.50;6975026;28;20252;-83
2023/07/21 05:17:32;;;;;;;3.30;2.20;;;;;;;22.81;41.88;98197.03;6948332;28;20209;-82
2023/07/21 05:20:55;;;;;;;4.30;2.80;;;;;;;22.92;40.84;98193.84;6949261;28;20301;-82
2023/07/21 05:24:17;;;;;;;4.80;2.30;;;;;;;23.16;40.42;98204.72;6946465;28;20821;-82
2023/07/21 05:27:38;;;;;;;3.40;2.43;;;;;;;22.81;41.17;98205.28;6947809;28;20242;-82
2023/07/21 05:31:00;;;;;;;3.10;2.80;;;;;;;22.90;41.30;98204.28;6945942;28;20314;-82
2023/07/21 05:34:22;;;;;;;3.87;2.57;;;;;;;23.24;40.16;98182.06;6945505;28;20205;-83
2023/07/21 05:37:45;;;;;;;2.93;2.27;;;;;;;23.55;40.51;98196.91;6945916;28;20582;-84
2023/07/21 05:41:06;;;;;;;2.43;2.23;;;;;;;23.47;42.03;98192.91;6960876;28;20674;-83
2023/07/21 05:44:30;;;;;;;2.90;2.60;;;;;;;23.78;39.61;98204.19;6973256;28;20318;-84
2023/07/21 05:47:51;;;;;;;4.13;2.93;;;;;;;23.59;39.96;98184.19;6991923;28;20225;-83
2023/07/21 05:51:13;;;;;;;2.77;2.47;;;;;;;23.91;39.54;98182.22;7002321;28;20984;-83
2023/07/21 05:54:37;;;;;;;5.63;2.63;;;;;;;24.03;39.13;98189.94;6996846;28;20230;-83
2023/07/21 05:57:58;;;;;;;3.33;2.60;;;;;;;23.71;37.46;98075.19;6977182;28;20343;-83
2023/07/21 06:01:20;;;;;;;3.13;2.47;;;;;;;25.31;36.47;98192.81;6977150;28;20224;-83
2023/07/21 06:04:43;;;;;;;2.63;2.43;;;;;;;25.55;35.95;98182.25;6977170;28;20248;-82
2023/07/21 06:08:05;;;;;;;3.70;2.10;;;;;;;26.22;34.74;98131.22;6959694;28;20205;-83
2023/07/21 06:11:28;;;;;;;2.70;2.50;;;;;;;26.43;35.23;98183.94;6950333;28;20250;-82
2023/07/21 06:14:50;;;;;;;4.03;2.20;;;;;;;27.04;34.41;98183.69;6982700;28;20623;-83
2023/07/21 06:18:11;;;;;;;4.87;2.50;;;;;;;26.51;33.96;98053.16;6974598;28;20254;-83
2023/07/21 06:21:33;;;;;;;4.13;2.60;;;;;;;26.70;34.98;98176.19;6976172;28;20202;-82
2023/07/21 06:24:55;;;;;;;3.30;2.53;;;;;;;26.48;35.33;98154.16;6977331;28;20231;-83
2023/07/21 06:28:18;;;;;;;4.37;2.47;;;;;;;26.61;35.98;98169.03;6980200;28;20269;-83
2023/07/21 06:31:39;;;;;;;4.30;2.33;;;;;;;26.21;36.47;98173.81;6981205;28;20200;-82
2023/07/21 06:35:03;;;;;;;3.90;2.60;;;;;;;26.58;35.55;98167.72;6982101;28;20210;-82
2023/07/21 06:38:25;;;;;;;5.87;2.60;;;;;;;26.84;34.58;98184.34;6979472;28;20589;-82
2023/07/21 06:41:47;;;;;;;5.43;2.30;;;;;;;26.88;34.18;98133.56;6962907;28;20210;-82
2023/07/21 06:45:10;;;;;;;3.23;2.50;;;;;;;27.39;32.81;98177.81;6969699;28;20214;-82
2023/07/21 06:48:32;;;;;;;3.37;1.90;;;;;;;26.60;34.82;98170.19;6955167;28;20222;-83
2023/07/21 06:51:53;;;;;;;2.30;2.10;;;;;;;26.49;34.02;98175.16;6971161;28;20292;-83
2023/07/21 06:55:15;;;;;;;4.00;2.20;;;;;;;27.23;33.72;98149.03;6968618;28;20196;-83
2023/07/21 06:58:37;;;;;;;4.63;2.40;;;;;;;27.52;33.94;98174.03;6944540;28;20231;-81
2023/07/21 07:02:00;;;;;;;5.80;2.47;;;;;;;27.42;34.63;98168.06;6953742;28;20359;-83
2023/07/21 07:05:22;;;;;;;2.83;2.40;;;;;;;27.03;34.35;98148.84;6967139;28;20679;-82
2023/07/21 07:08:43;;;;;;;2.93;1.97;;;;;;;27.22;34.72;98152.09;6963842;28;20223;-83
2023/07/21 07:12:10;;;;;;;2.87;2.47;;;;;;;26.92;33.80;98176.06;6973042;28;20225;-83
2023/07/21 07:15:31;;;;;;;4.57;2.20;;;;;;;27.57;33.82;98181.34;6973975;28;20220;-84
2023/07/21 07:18:54;;;;;;;4.00;2.23;;;;;;;27.12;33.21;98169.00;6961766;28;20261;-84
2023/07/21 07:22:16;;;;;;;3.63;2.20;;;;;;;27.16;32.15;98179.16;6974032;28;20285;-83
2023/07/21 07:25:37;;;;;;;5.20;2.20;;;;;;;27.50;32.14;98169.97;6968341;28;20206;-83
2023/07/21 07:28:59;;;;;;;4.43;2.33;;;;;;;28.11;30.49;98175.81;6955711;28;20232;-84
2023/07/21 07:32:21;;;;;;;3.27;2.20;;;;;;;29.09;28.64;98190.88;6970495;28;20338;-83
2023/07/21 07:35:50;;;;;;;3.83;2.40;;;;;;;28.98;29.45;98191.63;6979068;28;20293;-83
2023/07/21 07:39:12;;;;;;;4.10;2.53;;;;;;;28.59;29.53;98203.13;6976043;28;20229;-83
2023/07/21 07:42:33;;;;;;;4.67;2.67;;;;;;;28.32;30.03;98201.63;6974976;28;20227;-83
2023/07/21 07:45:55;;;;;;;4.03;2.50;;;;;;;27.23;31.75;98143.47;6965236;28;20297;-84
2023/07/21 07:49:16;;;;;;;2.73;2.40;;;;;;;27.10;31.90;98158.28;6980477;28;20241;-84
2023/07/21 07:52:45;;;;;;;2.23;2.07;;;;;;;27.22;32.11;98152.94;6978906;28;20234;-83
2023/07/21 07:56:07;;;;;;;3.67;2.50;;;;;;;27.62;31.84;98192.25;6978781;28;20286;-85
2023/07/21 07:59:28;;;;;;;4.73;2.50;;;;;;;27.52;31.19;98159.38;6954813;28;20225;-83
2023/07/21 08:02:50;;;;;;;4.53;2.63;;;;;;;27.55;31.97;98156.75;6965347;28;20326;-84
2023/07/21 08:06:12;;;;;;;3.23;2.87;;;;;;;28.05;32.01;98165.22;6950931;28;20216;-83
2023/07/21 08:09:35;;;;;;;3.30;2.60;;;;;;;29.20;30.04;98208.72;6950872;28;20713;-83
2023/07/21 08:12:57;;;;;;;5.60;2.83;;;;;;;29.02;29.78;98212.81;6954128;28;20271;-83
2023/07/21 08:16:18;;;;;;;2.67;2.40;;;;;;;28.74;29.61;98211.69;6976818;28;20606;-84
2023/07/21 08:19:41;;;;;;;4.63;2.80;;;;;;;29.55;28.48;98198.16;6979243;28;20276;-83
2023/07/21 08:23:03;;;;;;;4.00;2.60;;;;;;;28.76;30.19;98216.88;6978405;28;20281;-83
2023/07/21 08:26:26;;;;;;;5.30;2.77;;;;;;;27.93;30.59;98218.59;6953437;28;20208;-83
2023/07/21 08:29:48;;;;;;;3.97;2.23;;;;;;;27.86;31.11;98207.22;6977963;28;20322;-84
2023/07/21 08:33:10;;;;;;;3.17;2.20;;;;;;;28.37;29.97;98170.97;6971494;28;20210;-84
2023/07/21 08:36:31;;;;;;;8.50;2.73;;;;;;;28.68;29.23;98215.81;6976812;28;20208;-85
2023/07/21 08:39:53;;;;;;;5.27;2.33;;;;;;;28.22;30.82;98221.44;6978416;28;20572;-84
2023/07/21 08:43:16;;;;;;;8.70;2.40;;;;;;;29.21;29.94;98215.09;6950238;28;20710;-84
2023/07/21 08:46:37;;;;;;;5.70;2.40;;;;;;;29.32;28.09;98146.88;6948767;28;20206;-83
2023/07/21 08:49:59;;;;;;;2.47;2.13;;;;;;;29.53;28.19;98217.94;6975491;28;20254;-83
2023/07/21 08:53:21;;;;;;;4.63;2.20;;;;;;;29.78;27.13;98193.81;6960685;28;20794;-84
2023/07/21 08:56:43;;;;;;;7.23;2.57;;;;;;;29.86;27.78;98190.13;6959271;28;20224;-86
2023/07/21 09:00:10;;;;;;;3.63;2.40;;;;;;;29.94;27.67;98209.47;6947322;28;20772;-83
2023/07/21 09:03:31;;;;;;;3.30;2.10;;;;;;;29.34;26.96;98186.22;6970180;28;20220;-84
2023/07/21 09:06:55;;;;;;;5.63;2.23;;;;;;;28.34;28.76;98154.97;6952832;28;20573;-84
2023/07/21 09:10:31;;;;;;;3.87;2.10;;;;;;;29.41;28.07;98215.09;6958876;28;20719;-88
2023/07/21 09:13:57;;;;;;;3.13;1.80;;;;;;;29.23;28.12;98213.63;6968890;28;20199;-84
2023/07/21 09:17:20;;;;;;;3.80;2.03;;;;;;;29.44;27.56;98217.19;6972563;28;20275;-85
2023/07/21 09:21:25;;;;;;;1.97;1.80;;;;;;;29.11;28.70;98173.88;6979768;28;20259;-90
2023/07/21 09:24:52;;;;;;;2.97;2.00;;;;;;;28.66;27.53;98208.97;6974147;28;20257;-84
2023/07/21 09:28:13;;;;;;;1.93;1.83;;;;;;;29.01;26.92;98194.53;6961773;28;20196;-84
2023/07/21 09:31:35;;;;;;;4.87;2.00;;;;;;;29.79;26.72;98201.00;6959564;28;20233;-84
2023/07/21 09:35:14;;;;;;;4.30;2.20;;;;;;;30.58;26.44;98199.34;6960690;28;20603;-82
2023/07/21 09:38:36;;;;;;;2.30;1.67;;;;;;;31.48;25.48;98203.31;6898044;28;20354;-84
2023/07/21 09:41:58;;;;;;;2.10;1.90;;;;;;;30.17;26.57;98190.41;6888379;28;20225;-87
2023/07/21 09:45:21;;;;;;;4.87;2.00;;;;;;;29.46;26.55;98170.44;6882035;28;20772;-88
2023/07/21 09:48:44;;;;;;;2.47;2.27;;;;;;;28.59;28.50;98197.56;6885953;28;20624;-87
2023/07/21 09:52:08;;;;;;;3.90;2.30;;;;;;;29.39;27.44;98195.19;6887112;28;20230;-83
2023/07/21 09:55:35;;;;;;;2.10;1.90;;;;;;;30.98;24.89;98149.28;6888350;28;20921;-84
2023/07/21 09:59:00;;;;;;;5.37;2.00;;;;;;;31.16;23.53;98165.34;6889738;28;20322;-84
2023/07/21 10:02:25;;;;;;;2.20;2.03;;;;;;;30.41;24.39;98179.28;6880598;28;20230;-86
2023/07/21 10:05:46;;;;;;;2.13;1.80;;;;;;;31.64;23.13;98120.56;6862320;28;20220;-82
2023/07/21 10:09:09;;;;;;;4.57;2.00;;;;;;;32.72;22.26;98172.69;6864268;28;20231;-82
2023/07/21 10:12:42;;;;;;;2.73;1.67;;;;;;;32.25;22.50;98169.19;6886348;28;20206;-82
2023/07/21 10:16:07;;;;;;;3.53;2.13;;;;;;;31.35;23.58;98168.31;6952086;28;20576;-82
2023/07/21 10:19:29;;;;;;;2.23;2.00;;;;;;;31.04;23.05;98161.78;6972067;28;20601;-82
2023/07/21 10:22:56;;;;;;;3.67;1.77;;;;;;;30.87;23.78;98170.44;6975418;28;20333;-81
2023/07/21 10:26:19;;;;;;;2.53;1.73;;;;;;;31.30;22.82;98121.22;6975434;28;20194;-82
2023/07/21 10:29:40;;;;;;;3.87;2.00;;;;;;;30.22;23.73;98163.19;6971650;28;20712;-81
2023/07/21 10:33:11;;;;;;;2.57;2.17;;;;;;;31.30;22.93;98159.41;6970008;28;20662;-86
2023/07/21 10:36:44;;;;;;;2.57;1.80;;;;;;;30.23;23.73;98164.81;6954553;28;20199;-86
2023/07/21 10:40:08;;;;;;;4.07;1.90;;;;;;;29.82;24.72;98170.53;6976192;28;20202;-83
2023/07/21 10:43:32;;;;;;;3.50;2.10;;;;;;;30.43;24.72;98176.97;6961744;28;20231;-80
2023/07/21 10:46:53;;;;;;;4.90;1.90;;;;;;;30.16;25.60;98170.16;6971382;28;20939;-92
2023/07/21 10:50:16;;;;;;;2.40;1.97;;;;;;;31.63;23.62;98152.38;6973222;28;20243;-85
2023/07/21 10:53:38;;;;;;;4.00;2.30;;;;;;;32.46;22.92;98177.25;6971442;28;20215;-82
2023/07/21 10:57:00;;;;;;;3.00;2.10;;;;;;;32.21;23.17;98175.81;6964809;28;20338;-82
2023/07/21 11:00:24;;;;;;;3.47;1.93;;;;;;;31.00;23.80;98183.16;6973519;28;20223;-81
2023/07/21 11:03:46;;;;;;;2.93;1.80;;;;;;;30.78;23.50;98170.56;6970528;28;20230;-82
2023/07/21 11:07:07;;;;;;;2.60;2.00;;;;;;;31.04;24.35;98178.50;6987301;28;20199;-82
2023/07/21 11:10:32;;;;;;;2.63;1.60;;;;;;;31.60;23.85;98172.59;6985616;28;20292;-82
2023/07/21 11:13:54;;;;;;;2.07;1.87;;;;;;;32.50;21.94;98120.38;6975701;28;20294;-83
2023/07/21 11:17:17;;;;;;;2.13;1.90;;;;;;;33.11;21.92;98170.78;6981199;28;20273;-82
2023/07/21 11:20:38;;;;;;;2.70;2.00;;;;;;;33.32;21.21;98171.28;6972290;28;20241;-84
2023/07/21 11:24:01;;;;;;;3.90;2.10;;;;;;;32.39;22.16;98180.72;6976396;28;20275;-82
2023/07/21 11:27:23;;;;;;;2.43;2.00;;;;;;;32.42;21.38;98166.03;6971617;28;20199;-82
2023/07/21 11:30:48;;;;;;;3.03;2.07;;;;;;;32.50;21.76;98172.59;6971068;28;20320;-82
2023/07/21 11:34:21;;;;;;;2.90;2.50;;;;;;;31.73;22.31;98159.44;6968987;28;20213;-82
2023/07/21 11:37:45;;;;;;;2.93;1.97;;;;;;;32.29;21.68;98158.94;6984236;28;20613;-82
2023/07/21 11:41:08;;;;;;;4.43;2.20;;;;;;;32.54;22.27;98165.91;6976631;28;20224;-82
2023/07/21 11:44:31;;;;;;;3.47;1.80;;;;;;;32.25;22.31;98163.59;6964889;28;20229;-82
2023/07/21 11:47:53;;;;;;;2.70;2.10;;;;;;;31.52;23.67;98139.31;6961339;28;20199;-84
2023/07/21 11:51:16;;;;;;;3.63;2.10;;;;;;;32.10;22.14;98152.44;6961547;28;20216;-82
2023/07/21 11:54:42;;;;;;;5.17;2.00;;;;;;;30.62;23.62;98138.22;6996316;28;20236;-81
2023/07/21 11:58:04;;;;;;;2.27;2.03;;;;;;;31.87;23.33;98154.22;6983066;28;20318;-81
2023/07/21 12:01:25;;;;;;;2.10;2.00;;;;;;;31.37;23.30;98162.41;6975990;28;20246;-84
2023/07/21 12:04:48;;;;;;;1.97;1.87;;;;;;;30.79;23.37;98157.47;6971660;28;20439;-81
2023/07/21 12:08:11;;;;;;;6.47;2.40;;;;;;;29.23;24.58;98087.84;6983503;28;20222;-81
2023/07/21 12:11:33;;;;;;;2.80;2.37;;;;;;;29.02;25.57;98156.50;6980561;28;20200;-83
2023/07/21 12:14:55;;;;;;;3.53;2.30;;;;;;;29.92;24.72;98092.25;6970216;28;20252;-82
2023/07/21 12:18:17;;;;;;;2.83;1.90;;;;;;;30.61;24.14;98156.88;6959779;28;20245;-82
2023/07/21 12:21:38;;;;;;;4.07;2.40;;;;;;;30.16;25.03;98156.25;6963337;28;20201;-83
2023/07/21 12:25:02;;;;;;;2.77;1.80;;;;;;;29.42;25.15;98165.91;6970077;28;20230;-81
2023/07/21 12:28:23;;;;;;;2.77;2.13;;;;;;;30.05;25.19;98140.31;6948841;28;20247;-84
2023/07/21 12:31:45;;;;;;;3.53;2.27;;;;;;;30.48;24.58;98169.19;6953953;28;20253;-82
2023/07/21 12:35:09;;;;;;;2.57;2.00;;;;;;;30.22;25.26;98182.66;6970597;28;20203;-83
2023/07/21 12:38:30;;;;;;;4.37;2.30;;;;;;;30.60;25.20;98180.31;6975669;28;20311;-82
2023/07/21 12:41:53;;;;;;;2.83;2.03;;;;;;;29.81;26.63;98176.44;6966719;28;20272;-82
2023/07/21 12:45:14;;;;;;;3.97;2.17;;;;;;;29.62;26.39;98134.50;6968151;28;20253;-82
2023/07/21 12:48:36;;;;;;;2.67;2.10;;;;;;;30.36;26.46;98185.09;6970299;28;20272;-82
2023/07/21 12:51:57;;;;;;;2.67;1.60;;;;;;;30.68;25.73;98170.25;6974582;28;20280;-82
2023/07/21 12:55:19;;;;;;;3.37;2.20;;;;;;;30.46;25.80;98140.91;6968242;28;20335;-82
2023/07/21 12:58:42;;;;;;;2.37;2.17;;;;;;;30.56;25.49;98175.81;6949406;28;20221;-82
2023/07/21 13:02:05;;;;;;;2.27;1.93;;;;;;;30.89;25.62;98168.13;6953823;28;20201;-82
2023/07/21 13:05:26;;;;;;;3.50;2.00;;;;;;;30.77;26.29;98157.81;6976589;28;20224;-82
2023/07/21 13:08:48;;;;;;;3.03;2.10;;;;;;;30.70;26.45;98165.94;6975588;28;20584;-83
2023/07/21 13:12:10;;;;;;;3.20;1.80;;;;;;;30.54;26.14;98159.44;6974764;28;20211;-82
2023/07/21 13:15:33;;;;;;;1.80;1.70;;;;;;;30.10;26.85;98156.81;6975658;28;20234;-82
2023/07/21 13:18:55;;;;;;;3.70;2.30;;;;;;;30.69;27.55;98149.59;6976780;28;20257;-82
2023/07/21 13:22:16;;;;;;;4.47;2.20;;;;;;;31.26;26.49;98150.94;6976205;28;20213;-81
2023/07/21 13:25:38;;;;;;;2.73;2.20;;;;;;;30.69;26.12;98150.41;6975297;28;20262;-86
2023/07/21 13:29:00;;;;;;;4.77;2.37;;;;;;;30.31;26.54;98085.97;6977568;28;20237;-82
2023/07/21 13:32:23;;;;;;;4.57;2.33;;;;;;;29.80;27.52;98180.38;6966320;28;20206;-81
2023/07/21 13:35:45;;;;;;;4.50;2.00;;;;;;;29.62;26.55;98193.66;6971629;28;20645;-83
2023/07/21 13:39:08;;;;;;;2.87;2.10;;;;;;;28.71;27.92;98200.47;6958512;28;20689;-82
2023/07/21 13:42:29;;;;;;;3.93;2.53;;;;;;;29.00;27.58;98195.69;6947344;28;20210;-82
2023/07/21 13:45:51;;;;;;;1.90;1.73;;;;;;;29.30;27.15;98210.31;6952236;28;20222;-81
2023/07/21 13:49:14;;;;;;;2.67;2.03;;;;;;;28.81;27.75;98206.41;6946267;28;20301;-81
2023/07/21 13:52:36;;;;;;;3.93;2.33;;;;;;;28.12;28.60;98176.59;6971007;28;20302;-82
2023/07/21 13:55:58;;;;;;;6.37;2.10;;;;;;;28.36;29.02;98224.78;6945999;28;20213;-82
2023/07/21 13:59:19;;;;;;;3.50;2.10;;;;;;;28.02;30.02;98226.91;6959090;28;20303;-83
2023/07/21 14:02:41;;;;;;;5.93;2.33;;;;;;;27.72;31.02;98223.19;6947239;28;20298;-84
2023/07/21 14:06:04;;;;;;;3.27;1.97;;;;;;;27.59;31.04;98238.06;6959370;28;20226;-83
2023/07/21 14:09:26;;;;;;;3.43;2.10;;;;;;;27.48;31.23;98245.06;6968654;28;20235;-82
2023/07/21 14:12:48;;;;;;;5.40;1.83;;;;;;;27.52;31.37;98273.75;6974036;28;20652;-82
2023/07/21 14:16:10;;;;;;;2.80;2.60;;;;;;;26.85;32.81;98299.41;6973061;28;20211;-84
2023/07/21 14:19:32;;;;;;;5.67;2.37;;;;;;;26.55;33.28;98325.19;6973170;28;20318;-83
2023/07/21 14:22:55;;;;;;;2.30;2.07;;;;;;;25.88;34.87;98340.19;6972125;28;20294;-82
2023/07/21 14:27:13;;;;;;;3.83;2.03;;;;;;;25.22;35.84;98342.88;6968759;28;20211;-83
2023/07/21 14:30:38;;;;;;;3.73;2.13;;;;;;;25.31;35.92;98352.09;6966265;28;20364;-86
2023/07/21 14:33:59;;;;;;;5.40;1.73;;;;;;;25.18;36.16;98362.00;6971431;28;20252;-84
2023/07/21 14:37:21;;;;;;;2.80;2.10;;;;;;;24.92;37.29;98304.94;6968717;28;20293;-82
2023/07/21 14:40:44;;;;;;;3.60;2.00;;;;;;;24.23;42.32;98317.09;6963240;28;20239;-82
2023/07/21 14:44:05;;;;;;;4.63;2.60;;;;;;;24.03;44.87;98383.59;6949660;28;20221;-83
2023/07/21 14:47:27;;;;;;;2.90;2.00;;;;;;;24.40;44.22;98386.22;6944553;28;20273;-83
2023/07/21 14:50:49;;;;;;;4.90;2.63;;;;;;;24.30;43.99;98385.59;6943108;28;20667;-84
2023/07/21 14:54:10;;;;;;;3.47;2.30;;;;;;;24.24;43.15;98384.84;6956487;28;20254;-83
2023/07/21 14:57:33;;;;;;;2.63;2.43;;;;;;;24.10;44.66;98384.00;6944714;28;20264;-83
2023/07/21 15:00:54;;;;;;;4.80;2.53;;;;;;;23.30;47.52;98332.97;6954988;28;20586;-82
2023/07/21 15:04:18;;;;;;;4.03;2.80;;;;;;;23.19;49.52;98405.75;6973391;28;20680;-83
2023/07/21 15:07:39;;;;;;;6.13;2.80;;;;;;;22.56;52.68;98376.03;6955455;28;20575;-83
2023/07/21 15:11:01;;;;;;;3.67;2.57;;;;;;;22.15;53.05;98444.25;6961007;28;20646;-83
2023/07/21 15:14:24;;;;;;;7.30;3.20;;;;;;;22.07;55.75;98441.31;6972459;28;20282;-83
2023/07/21 15:17:46;;;;;;;4.73;3.10;;;;;;;22.31;55.28;98445.75;6973121;28;20259;-83
2023/07/21 15:21:07;;;;;;;5.03;2.93;;;;;;;22.08;57.45;98440.22;6972622;28;20250;-83
2023/07/21 15:24:29;;;;;;;2.90;2.70;;;;;;;21.59;58.11;98366.19;6970632;28;20200;-83
2023/07/21 15:27:51;;;;;;;3.33;3.00;;;;;;;21.99;59.53;98444.66;6966995;28;20699;-83
2023/07/21 15:31:13;;;;;;;3.57;2.90;;;;;;;21.99;59.29;98434.50;6969757;28;20683;-83
2023/07/21 15:34:38;;;;;;;5.17;3.27;;;;;;;22.10;58.95;98399.53;6966207;28;20347;-83
2023/07/21 15:37:59;;;;;;;5.10;3.13;;;;;;;22.52;57.69;98406.00;6948984;28;20218;-82
2023/07/21 15:41:21;;;;;;;3.77;3.23;;;;;;;22.52;57.97;98394.19;6955559;28;20230;-83
2023/07/21 15:44:42;;;;;;;5.73;3.17;;;;;;;22.62;57.13;98400.41;6968580;28;20314;-84
2023/07/21 15:48:06;;;;;;;5.13;3.00;;;;;;;22.76;57.71;98403.25;6952789;28;20303;-84
2023/07/21 15:51:28;;;;;;;3.87;2.90;;;;;;;22.54;57.72;98411.22;6974697;28;20225;-84
2023/07/21 15:54:49;;;;;;;4.07;3.07;;;;;;;22.96;55.63;98417.56;6968941;28;20643;-83